Time;durP1;ratioP1;P1;durP2;ratioP2;P2;SDS_P1;SDS_P2;PMS_P1;PMS_P2;Temp;Humidity;BMP_temperature;BMP_pressure;BME280_temperature;BME280_humidity;BME280_pressure;Samples;Min_cycle;Max_cycle;Signal;HPM_P1;HPM_P2
2022/06/11 00:01:08;;;;;;;4.78;2.20;;;18.20;92.20;;;;;;2106749;28;20123;-94
2022/06/11 00:02:28;;;;;;;5.13;2.63;;;18.20;92.20;;;;;;2107782;27;20032;-93
2022/06/11 00:03:51;;;;;;;5.00;2.40;;;18.20;92.20;;;;;;2094369;28;20044;-93
2022/06/11 00:05:11;;;;;;;4.15;2.60;;;18.10;92.20;;;;;;2107699;27;20031;-93
2022/06/11 00:06:34;;;;;;;4.90;2.30;;;18.10;92.20;;;;;;2111655;28;20433;-94
2022/06/11 00:07:53;;;;;;;4.55;2.20;;;18.10;92.20;;;;;;2110293;28;20024;-93
2022/06/11 00:09:13;;;;;;;4.30;2.42;;;18.10;92.20;;;;;;2104608;28;20119;-93
2022/06/11 00:10:32;;;;;;;4.85;2.33;;;18.10;92.20;;;;;;2114651;27;20027;-93
2022/06/11 00:11:52;;;;;;;4.63;2.20;;;18.10;92.20;;;;;;2098830;28;20037;-92
2022/06/11 00:13:12;;;;;;;4.07;2.28;;;18.10;92.20;;;;;;2100798;28;20977;-93
2022/06/11 00:14:33;;;;;;;3.45;2.20;;;18.00;92.20;;;;;;2103358;28;20048;-93
2022/06/11 00:15:54;;;;;;;3.63;2.03;;;18.00;92.20;;;;;;2104246;28;20115;-93
2022/06/11 00:17:16;;;;;;;4.45;2.13;;;18.00;92.20;;;;;;2107088;28;20047;-93
2022/06/11 00:18:37;;;;;;;2.75;1.83;;;18.00;92.20;;;;;;2109968;28;20421;-92
2022/06/11 00:19:58;;;;;;;4.57;1.90;;;18.00;92.20;;;;;;2107486;28;20434;-93
2022/06/11 00:21:17;;;;;;;;;;;18.00;92.20;;;;;;2099134;28;20028;-93
2022/06/11 00:22:36;;;;;;;3.28;1.90;;;18.00;92.20;;;;;;2090656;28;20375;-93
2022/06/11 00:23:56;;;;;;;2.80;1.40;;;17.90;92.20;;;;;;2097196;28;20037;-93
2022/06/11 00:25:16;;;;;;;3.03;1.55;;;17.90;92.10;;;;;;2094926;28;20044;-93
2022/06/11 00:26:36;;;;;;;2.65;1.50;;;17.90;92.20;;;;;;2102681;28;20493;-92
2022/06/11 00:27:56;;;;;;;;;;;17.90;92.20;;;;;;2097212;28;20040;-93
2022/06/11 00:29:16;;;;;;;3.20;1.50;;;17.90;92.10;;;;;;2098656;28;19912;-93
2022/06/11 00:30:36;;;;;;;1.67;1.40;;;17.80;92.40;;;;;;2106549;28;20071;-92
2022/06/11 00:31:55;;;;;;;3.03;1.40;;;17.80;92.10;;;;;;2103087;28;20048;-92
2022/06/11 00:33:15;;;;;;;2.55;1.60;;;17.80;92.20;;;;;;2099393;28;20414;-92
2022/06/11 00:34:35;;;;;;;2.90;1.48;;;17.80;92.20;;;;;;2099230;28;20072;-93
2022/06/11 00:35:55;;;;;;;3.57;1.30;;;17.80;92.20;;;;;;2108968;28;20036;-93
2022/06/11 00:37:17;;;;;;;3.70;1.55;;;17.80;92.20;;;;;;2099704;28;20862;-93
2022/06/11 00:38:37;;;;;;;3.10;1.13;;;17.70;92.20;;;;;;2109590;28;20027;-93
2022/06/11 00:39:57;;;;;;;3.03;1.55;;;17.70;92.20;;;;;;2105413;28;20810;-92
2022/06/11 00:41:20;;;;;;;2.80;1.40;;;17.70;92.20;;;;;;2105555;28;20027;-93
2022/06/11 00:42:40;;;;;;;3.00;1.35;;;17.70;92.20;;;;;;2110292;28;20039;-91
2022/06/11 00:43:59;;;;;;;2.30;1.30;;;17.70;92.20;;;;;;2094509;28;20044;-92
2022/06/11 00:45:24;;;;;;;3.13;1.20;;;17.70;92.20;;;;;;2083826;28;20045;-94
2022/06/11 00:46:43;;;;;;;2.47;1.40;;;17.60;92.20;;;;;;2106477;28;20016;-91
2022/06/11 00:48:13;;;;;;;2.35;1.25;;;17.60;92.30;;;;;;2112224;28;20036;-91
2022/06/11 00:49:37;;;;;;;3.83;1.70;;;17.60;92.30;;;;;;2112776;28;20063;-92
2022/06/11 00:51:12;;;;;;;2.00;1.27;;;17.60;92.30;;;;;;2111910;28;20035;-93
2022/06/11 00:52:38;;;;;;;2.55;1.40;;;17.60;92.30;;;;;;2112020;28;20035;-92
2022/06/11 00:54:01;;;;;;;3.60;1.70;;;17.50;92.30;;;;;;2112159;28;20130;-92
2022/06/11 00:55:36;;;;;;;3.55;1.63;;;17.50;92.30;;;;;;2113911;28;20098;-92
2022/06/11 00:56:57;;;;;;;1.75;1.30;;;17.50;92.30;;;;;;2112232;28;20035;-93
2022/06/11 00:58:29;;;;;;;2.30;1.50;;;17.50;92.40;;;;;;2095501;28;20490;-92
2022/06/11 00:59:52;;;;;;;2.63;1.52;;;17.50;92.40;;;;;;2107208;28;20075;-92
2022/06/11 01:01:14;;;;;;;2.95;1.50;;;17.40;92.40;;;;;;2110534;28;20028;-92
2022/06/11 01:02:33;;;;;;;2.65;1.45;;;17.40;92.40;;;;;;2101470;28;20445;-92
2022/06/11 01:03:55;;;;;;;3.70;1.50;;;17.40;92.40;;;;;;2092283;28;20041;-92
2022/06/11 01:05:20;;;;;;;4.60;1.73;;;17.40;92.40;;;;;;2098500;28;20518;-94
2022/06/11 01:06:52;;;;;;;3.13;1.73;;;17.40;92.40;;;;;;2107195;28;20433;-93
2022/06/11 01:08:38;;;;;;;2.38;1.60;;;17.40;92.50;;;;;;2111181;28;20035;-93
2022/06/11 01:10:12;;;;;;;3.17;1.60;;;17.30;92.40;;;;;;2119748;27;20120;-94
2022/06/11 01:11:55;;;;;;;2.80;1.80;;;17.30;92.50;;;;;;2120260;27;20030;-94
2022/06/11 01:13:33;;;;;;;2.85;1.60;;;17.30;92.50;;;;;;2112770;28;20040;-94
2022/06/11 01:15:06;;;;;;;2.22;1.65;;;17.30;92.50;;;;;;2115563;28;20035;-93
2022/06/11 01:16:27;;;;;;;3.13;1.75;;;17.30;92.50;;;;;;2114296;28;20027;-93
2022/06/11 01:18:05;;;;;;;2.78;1.80;;;17.30;92.50;;;;;;2111992;28;20055;-94
2022/06/11 01:19:43;;;;;;;3.03;1.83;;;17.20;92.50;;;;;;2112560;28;20043;-93
2022/06/11 01:21:08;;;;;;;2.88;1.60;;;17.20;92.60;;;;;;2112932;28;20036;-93
2022/06/11 01:22:50;;;;;;;2.40;1.73;;;17.20;92.60;;;;;;2112787;28;20024;-93
2022/06/11 01:24:33;;;;;;;3.92;1.73;;;17.20;92.60;;;;;;2106635;28;20036;-93
2022/06/11 01:26:04;;;;;;;3.55;1.85;;;17.10;92.60;;;;;;2112332;28;20122;-92
2022/06/11 01:27:23;;;;;;;5.35;1.80;;;17.10;92.60;;;;;;2116733;27;20480;-92
2022/06/11 01:29:17;;;;;;;3.95;2.28;;;17.10;92.60;;;;;;2114499;28;20048;-92
2022/06/11 01:31:18;;;;;;;3.38;2.25;;;17.10;92.60;;;;;;2113471;28;20044;-93
2022/06/11 01:32:49;;;;;;;3.35;2.03;;;17.00;92.60;;;;;;2103578;28;20080;-92
2022/06/11 01:34:20;;;;;;;3.35;1.80;;;17.00;92.70;;;;;;2118668;27;20035;-92
2022/06/11 01:36:00;;;;;;;3.63;1.98;;;17.00;92.70;;;;;;2116704;28;20106;-93
2022/06/11 01:37:27;;;;;;;3.10;1.88;;;17.00;92.70;;;;;;2115499;28;20111;-94
2022/06/11 01:38:53;;;;;;;2.30;1.65;;;17.00;92.70;;;;;;2106811;28;20079;-93
2022/06/11 01:40:54;;;;;;;2.65;1.85;;;17.00;92.70;;;;;;2105550;28;20068;-94
2022/06/11 01:42:36;;;;;;;4.13;1.80;;;16.90;92.70;;;;;;2091560;28;20043;-94
2022/06/11 01:44:03;;;;;;;4.30;1.73;;;16.90;92.70;;;;;;2103619;28;20047;-93
2022/06/11 01:45:28;;;;;;;3.25;2.00;;;16.90;92.70;;;;;;2105672;28;20040;-94
2022/06/11 01:46:51;;;;;;;4.15;2.20;;;16.90;92.70;;;;;;2117856;28;20043;-92
2022/06/11 01:48:16;;;;;;;2.63;1.80;;;16.90;92.70;;;;;;2117257;28;20116;-94
2022/06/11 01:49:39;;;;;;;4.00;2.10;;;16.90;92.70;;;;;;2110053;28;20039;-93
2022/06/11 01:51:15;;;;;;;3.17;1.80;;;16.90;92.80;;;;;;2112890;28;20027;-93
2022/06/11 01:52:59;;;;;;;3.17;1.92;;;16.90;92.80;;;;;;2109532;28;20044;-94
2022/06/11 01:54:48;;;;;;;3.50;1.80;;;16.90;92.80;;;;;;2123987;28;20008;-92
2022/06/11 01:56:14;;;;;;;2.88;1.80;;;16.80;92.70;;;;;;2124103;28;20083;-94
2022/06/11 01:58:06;;;;;;;2.58;1.65;;;16.80;92.80;;;;;;2121622;28;20028;-95
2022/06/11 01:59:39;;;;;;;3.50;1.85;;;16.80;92.80;;;;;;2123234;28;20023;-93
2022/06/11 02:01:57;;;;;;;3.38;1.98;;;16.70;93.10;;;;;;2115733;28;20063;-94
2022/06/11 02:03:25;;;;;;;3.20;1.75;;;16.70;92.80;;;;;;2082758;28;20061;-94
2022/06/11 02:05:08;;;;;;;5.05;2.00;;;16.70;92.80;;;;;;2080498;28;20041;-94
2022/06/11 02:06:42;;;;;;;2.50;1.73;;;16.70;92.90;;;;;;2082452;28;20022;-94
2022/06/11 02:08:17;;;;;;;3.03;1.95;;;16.60;92.90;;;;;;2082878;28;20038;-94
2022/06/11 02:10:06;;;;;;;2.28;1.60;;;16.60;92.90;;;;;;2082817;28;20037;-94
2022/06/11 02:11:56;;;;;;;4.03;2.03;;;16.60;92.90;;;;;;2067107;28;20117;-93
2022/06/11 02:13:49;;;;;;;2.30;1.65;;;16.60;93.20;;;;;;2081301;28;20116;-94
2022/06/11 02:15:21;;;;;;;3.03;1.55;;;16.60;92.90;;;;;;2087596;28;20040;-94
2022/06/11 02:16:54;;;;;;;3.60;1.77;;;16.60;93.00;;;;;;2106010;28;20040;-94
2022/06/11 02:18:19;;;;;;;3.15;2.00;;;16.60;93.00;;;;;;2112613;28;20043;-93
2022/06/11 02:19:47;;;;;;;2.80;1.70;;;16.60;93.10;;;;;;2122710;27;20501;-93
2022/06/11 02:21:14;;;;;;;2.88;1.90;;;16.50;93.00;;;;;;2108355;28;20048;-94
2022/06/11 02:23:10;;;;;;;3.50;1.90;;;16.50;93.00;;;;;;2112828;28;20043;-94
2022/06/11 02:24:37;;;;;;;3.88;1.90;;;16.50;93.00;;;;;;2125620;27;20035;-94
2022/06/11 02:26:04;;;;;;;3.20;2.00;;;16.50;93.00;;;;;;2116784;28;20040;-93
2022/06/11 02:27:26;;;;;;;2.50;1.70;;;16.50;93.10;;;;;;2102501;28;20506;-94
2022/06/11 02:28:47;;;;;;;3.50;2.03;;;16.50;93.10;;;;;;2102355;28;20123;-94
2022/06/11 02:30:12;;;;;;;3.10;1.90;;;16.40;93.10;;;;;;2096796;28;20496;-94
2022/06/11 02:31:52;;;;;;;3.97;1.95;;;16.40;93.10;;;;;;2111999;27;20036;-94
2022/06/11 02:33:13;;;;;;;3.55;2.20;;;16.40;93.10;;;;;;2120670;27;20027;-94
2022/06/11 02:34:42;;;;;;;3.97;1.90;;;16.40;93.10;;;;;;2106733;28;20036;-93
2022/06/11 02:36:27;;;;;;;3.85;2.05;;;16.40;93.10;;;;;;2114082;27;20036;-93
2022/06/11 02:37:48;;;;;;;4.00;1.92;;;16.40;93.20;;;;;;2116631;28;20043;-94
2022/06/11 02:39:07;;;;;;;3.10;1.75;;;16.40;93.20;;;;;;2095400;28;20049;-93
2022/06/11 02:40:35;;;;;;;3.45;1.90;;;16.40;93.20;;;;;;2098874;28;20036;-94
2022/06/11 02:41:54;;;;;;;4.25;1.88;;;16.40;93.20;;;;;;2108289;27;20040;-94
2022/06/11 02:43:13;;;;;;;3.33;1.95;;;16.40;93.20;;;;;;2103346;28;20110;-94
2022/06/11 02:44:33;;;;;;;3.75;2.25;;;16.40;93.20;;;;;;2108089;28;20024;-93
2022/06/11 02:45:53;;;;;;;3.53;2.10;;;16.40;93.20;;;;;;2104845;28;20040;-94
2022/06/11 02:47:14;;;;;;;3.10;1.95;;;16.40;93.20;;;;;;2119038;27;20032;-94
2022/06/11 02:48:33;;;;;;;4.43;2.05;;;16.40;93.20;;;;;;2106876;28;20032;-94
2022/06/11 02:49:54;;;;;;;4.32;2.20;;;16.40;93.20;;;;;;2104593;28;20040;-94
2022/06/11 02:51:13;;;;;;;4.28;2.10;;;16.40;93.20;;;;;;2106215;28;20067;-94
2022/06/11 02:52:33;;;;;;;3.10;2.00;;;16.40;93.20;;;;;;2100393;28;20036;-93
2022/06/11 02:53:52;;;;;;;3.03;1.80;;;16.40;93.20;;;;;;2096398;28;20040;-94
2022/06/11 02:55:12;;;;;;;3.83;2.17;;;16.30;93.20;;;;;;2100526;28;20103;-94
2022/06/11 02:56:33;;;;;;;3.93;1.83;;;16.30;93.20;;;;;;2109948;28;20513;-94
2022/06/11 02:57:54;;;;;;;3.17;1.92;;;16.30;93.20;;;;;;2112052;28;20285;-94
2022/06/11 02:59:18;;;;;;;3.20;2.05;;;16.30;93.30;;;;;;2104437;28;20040;-93
2022/06/11 03:00:58;;;;;;;4.05;2.05;;;16.30;93.20;;;;;;2094557;28;20041;-94
2022/06/11 03:02:26;;;;;;;;;;;16.30;93.20;;;;;;2119591;28;20028;-92
2022/06/11 03:04:07;;;;;;;2.83;1.90;;;16.30;93.20;;;;;;2110823;28;19920;-93
2022/06/11 03:05:33;;;;;;;2.60;1.70;;;16.30;93.20;;;;;;2104581;28;20115;-93
2022/06/11 03:06:53;;;;;;;2.42;1.60;;;16.30;93.20;;;;;;2098052;28;20119;-93
2022/06/11 03:08:12;;;;;;;3.08;1.95;;;16.30;93.20;;;;;;2099179;28;20452;-92
2022/06/11 03:09:42;;;;;;;2.42;1.90;;;16.20;93.20;;;;;;2110263;27;20035;-93
2022/06/11 03:11:03;;;;;;;3.30;2.07;;;16.20;93.30;;;;;;2106415;28;20036;-93
2022/06/11 03:12:25;;;;;;;3.05;1.95;;;16.20;93.30;;;;;;2112077;28;20273;-93
2022/06/11 03:13:51;;;;;;;;;;;16.20;93.30;;;;;;2095888;28;20044;-91
2022/06/11 03:15:13;;;;;;;2.60;1.80;;;16.20;93.20;;;;;;2103606;28;19908;-93
2022/06/11 03:16:35;;;;;;;4.45;2.05;;;16.10;93.20;;;;;;2111051;28;20032;-94
2022/06/11 03:17:59;;;;;;;3.35;1.80;;;16.10;93.30;;;;;;2095296;28;20046;-94
2022/06/11 03:19:25;;;;;;;3.42;2.00;;;16.10;93.30;;;;;;2109710;28;20111;-94
2022/06/11 03:20:47;;;;;;;3.45;2.10;;;16.10;93.30;;;;;;2113170;27;20377;-93
2022/06/11 03:22:07;;;;;;;2.80;2.08;;;16.10;93.30;;;;;;2106500;28;20080;-94
2022/06/11 03:23:29;;;;;;;2.97;1.95;;;16.10;93.30;;;;;;2096034;28;20028;-94
2022/06/11 03:24:50;;;;;;;3.53;2.20;;;16.10;93.40;;;;;;2105181;28;20043;-94
2022/06/11 03:26:12;;;;;;;3.33;1.95;;;16.10;93.40;;;;;;2101564;28;20048;-93
2022/06/11 03:27:33;;;;;;;4.18;2.05;;;16.10;93.40;;;;;;2099594;28;20036;-93
2022/06/11 03:28:56;;;;;;;3.30;1.90;;;16.10;93.40;;;;;;2101338;28;20040;-93
2022/06/11 03:30:16;;;;;;;3.72;2.00;;;16.10;93.40;;;;;;2102399;28;20046;-94
2022/06/11 03:31:37;;;;;;;3.88;2.30;;;16.10;93.40;;;;;;2112989;28;20032;-94
2022/06/11 03:32:58;;;;;;;3.38;2.35;;;16.10;93.40;;;;;;2106669;28;20493;-94
2022/06/11 03:34:19;;;;;;;2.95;1.98;;;16.10;93.40;;;;;;2104843;28;20445;-93
2022/06/11 03:35:38;;;;;;;3.45;2.00;;;16.10;93.40;;;;;;2096263;28;20036;-93
2022/06/11 03:36:58;;;;;;;2.97;1.90;;;16.10;93.40;;;;;;2093972;28;20075;-94
2022/06/11 03:38:19;;;;;;;2.65;1.83;;;16.10;93.40;;;;;;2091648;28;20028;-93
2022/06/11 03:39:40;;;;;;;2.80;1.70;;;16.10;93.40;;;;;;2107089;28;20040;-93
2022/06/11 03:41:00;;;;;;;3.75;2.08;;;16.10;93.40;;;;;;2098400;28;20052;-93
2022/06/11 03:42:20;;;;;;;4.20;2.15;;;16.10;93.40;;;;;;2092562;28;20495;-93
2022/06/11 03:43:40;;;;;;;3.40;2.10;;;16.00;93.40;;;;;;2100242;28;20589;-93
2022/06/11 03:45:00;;;;;;;5.22;2.35;;;16.00;93.40;;;;;;2101097;28;20258;-93
2022/06/11 03:46:21;;;;;;;3.88;2.15;;;16.00;93.40;;;;;;2107577;28;20052;-93
2022/06/11 03:47:40;;;;;;;3.17;1.90;;;16.00;93.40;;;;;;2095936;28;20503;-93
2022/06/11 03:48:59;;;;;;;3.40;2.22;;;16.00;93.40;;;;;;2099584;28;21566;-93
2022/06/11 03:50:23;;;;;;;3.63;2.00;;;16.00;93.40;;;;;;2093149;28;20044;-94
2022/06/11 03:51:43;;;;;;;3.00;2.20;;;16.00;93.40;;;;;;2107575;27;20425;-93
2022/06/11 03:53:05;;;;;;;3.38;1.80;;;16.00;93.70;;;;;;2105640;28;20036;-94
2022/06/11 03:54:24;;;;;;;2.85;1.90;;;16.00;93.40;;;;;;2107605;28;20027;-95
2022/06/11 03:55:44;;;;;;;4.32;2.20;;;16.00;93.40;;;;;;2095629;28;20044;-95
2022/06/11 03:57:04;;;;;;;;;;;16.00;93.40;;;;;;2093441;28;20068;-95
2022/06/11 03:58:24;;;;;;;3.15;2.00;;;16.00;93.40;;;;;;2111964;27;19915;-92
2022/06/11 03:59:44;;;;;;;3.70;2.10;;;16.00;93.40;;;;;;2110031;28;20048;-92
2022/06/11 04:01:16;;;;;;;3.17;2.00;;;16.00;93.30;;;;;;2104031;28;20064;-95
2022/06/11 04:02:36;;;;;;;2.92;1.70;;;16.00;93.30;;;;;;2096018;28;20056;-91
2022/06/11 04:03:59;;;;;;;3.92;2.10;;;16.00;93.40;;;;;;2117429;27;20043;-92
2022/06/11 04:05:18;;;;;;;3.60;2.03;;;16.00;93.30;;;;;;2115814;28;20475;-94
2022/06/11 04:06:44;;;;;;;4.28;2.05;;;16.00;93.40;;;;;;2098877;28;20115;-93
2022/06/11 04:08:04;;;;;;;2.60;1.67;;;16.10;93.40;;;;;;2107352;28;20413;-92
2022/06/11 04:09:27;;;;;;;2.55;1.73;;;16.10;93.40;;;;;;2090627;28;20053;-93
2022/06/11 04:10:46;;;;;;;2.88;1.90;;;16.10;93.30;;;;;;2107367;28;20032;-92
2022/06/11 04:12:12;;;;;;;3.22;1.80;;;16.20;93.30;;;;;;2109200;28;20031;-92
2022/06/11 04:13:33;;;;;;;3.08;1.83;;;16.20;93.30;;;;;;2104750;28;20044;-92
2022/06/11 04:14:53;;;;;;;2.92;1.80;;;16.20;93.20;;;;;;2109702;28;20043;-93
2022/06/11 04:16:37;;;;;;;3.35;1.90;;;16.30;93.10;;;;;;2106692;28;20036;-92
2022/06/11 04:17:58;;;;;;;4.13;1.70;;;16.30;93.00;;;;;;2107038;28;20071;-92
2022/06/11 04:19:28;;;;;;;;;;;16.30;93.00;;;;;;2101562;28;20104;-92
2022/06/11 04:20:47;;;;;;;3.25;1.50;;;16.40;92.90;;;;;;2104027;28;19908;-92
2022/06/11 04:22:07;;;;;;;2.72;1.70;;;16.50;92.90;;;;;;2107829;28;20055;-91
2022/06/11 04:23:29;;;;;;;2.20;1.50;;;16.50;92.80;;;;;;2087392;28;20045;-92
2022/06/11 04:24:49;;;;;;;4.35;1.65;;;16.50;92.70;;;;;;2097607;28;20067;-93
2022/06/11 04:26:12;;;;;;;2.17;1.45;;;16.50;92.70;;;;;;2106305;28;20031;-92
2022/06/11 04:27:32;;;;;;;2.80;1.40;;;16.60;92.70;;;;;;2107823;28;20247;-92
2022/06/11 04:28:52;;;;;;;2.70;1.52;;;16.60;92.60;;;;;;2102227;28;20131;-93
2022/06/11 04:30:14;;;;;;;3.05;1.25;;;16.60;92.60;;;;;;2108168;28;20049;-93
2022/06/11 04:31:35;;;;;;;2.05;1.23;;;16.60;92.60;;;;;;2106866;28;20020;-93
2022/06/11 04:32:54;;;;;;;2.45;1.33;;;16.60;92.60;;;;;;2102340;28;20067;-92
2022/06/11 04:34:14;;;;;;;2.47;1.30;;;16.60;92.90;;;;;;2097917;28;20037;-92
2022/06/11 04:35:34;;;;;;;2.67;1.30;;;16.60;92.60;;;;;;2101262;28;20036;-93
2022/06/11 04:36:53;;;;;;;4.05;1.30;;;16.60;92.50;;;;;;2102443;28;20095;-92
2022/06/11 04:38:12;;;;;;;3.85;1.50;;;16.60;92.50;;;;;;2087470;28;20041;-92
2022/06/11 04:39:33;;;;;;;4.70;1.30;;;16.70;92.50;;;;;;2092269;28;20032;-92
2022/06/11 04:40:53;;;;;;;2.05;1.10;;;16.60;92.40;;;;;;2099744;28;20071;-92
2022/06/11 04:42:13;;;;;;;3.03;1.42;;;16.60;92.40;;;;;;2095663;28;20036;-92
2022/06/11 04:43:33;;;;;;;;;;;16.60;92.40;;;;;;2105892;28;20417;-92
2022/06/11 04:44:53;;;;;;;3.63;1.30;;;16.60;92.40;;;;;;2110863;28;19915;-93
2022/06/11 04:46:12;;;;;;;3.05;1.00;;;16.60;92.40;;;;;;2095192;28;20049;-91
2022/06/11 04:47:32;;;;;;;3.85;0.95;;;16.70;92.30;;;;;;2107744;28;20513;-93
2022/06/11 04:48:52;;;;;;;3.72;1.20;;;16.60;92.30;;;;;;2101189;28;20048;-92
2022/06/11 04:50:15;;;;;;;2.42;1.17;;;16.60;92.30;;;;;;2096034;28;20045;-92
2022/06/11 04:51:35;;;;;;;4.30;1.10;;;16.70;92.30;;;;;;2111592;27;20063;-92
2022/06/11 04:52:55;;;;;;;2.38;0.98;;;16.70;92.20;;;;;;2107081;28;20418;-92
2022/06/11 04:54:14;;;;;;;3.40;1.10;;;16.70;92.20;;;;;;2103683;28;20036;-91
2022/06/11 04:55:34;;;;;;;2.85;1.10;;;16.70;92.10;;;;;;2094439;28;20068;-91
2022/06/11 04:56:54;;;;;;;3.45;1.00;;;16.80;92.10;;;;;;2106082;28;20473;-92
2022/06/11 04:58:13;;;;;;;4.47;1.48;;;16.80;92.00;;;;;;2105310;28;20052;-92
2022/06/11 04:59:32;;;;;;;2.45;1.20;;;16.90;92.00;;;;;;2103708;28;20105;-93
2022/06/11 05:00:52;;;;;;;4.57;1.20;;;16.90;91.90;;;;;;2087730;28;20029;-92
2022/06/11 05:02:11;;;;;;;4.63;1.45;;;17.00;91.90;;;;;;2095215;28;20111;-94
2022/06/11 05:03:30;;;;;;;3.85;1.05;;;17.10;91.80;;;;;;2102222;28;20518;-92
2022/06/11 05:04:50;;;;;;;3.10;1.10;;;17.20;91.70;;;;;;2108775;28;20054;-92
2022/06/11 05:06:13;;;;;;;4.25;1.30;;;17.30;91.60;;;;;;2112427;28;20444;-94
2022/06/11 05:07:33;;;;;;;4.55;1.38;;;17.30;91.50;;;;;;2108165;28;20035;-93
2022/06/11 05:08:53;;;;;;;4.45;1.20;;;17.40;91.40;;;;;;2102029;28;20028;-93
2022/06/11 05:10:16;;;;;;;4.83;1.20;;;17.60;91.60;;;;;;2097436;28;20533;-94
2022/06/11 05:11:36;;;;;;;3.70;1.02;;;17.60;91.20;;;;;;2109532;28;20270;-92
2022/06/11 05:12:56;;;;;;;4.65;1.13;;;17.70;91.00;;;;;;2101019;28;20044;-93
2022/06/11 05:14:16;;;;;;;4.05;1.00;;;17.80;90.90;;;;;;2109211;28;20114;-93
2022/06/11 05:15:44;;;;;;;3.83;1.20;;;17.80;90.90;;;;;;2106426;28;20040;-93
2022/06/11 05:17:04;;;;;;;2.83;1.10;;;17.70;90.80;;;;;;2111792;28;20020;-93
2022/06/11 05:18:24;;;;;;;3.85;1.08;;;17.70;90.80;;;;;;2109482;28;20098;-93
2022/06/11 05:19:43;;;;;;;3.92;0.80;;;17.70;91.10;;;;;;2107299;28;20039;-92
2022/06/11 05:21:03;;;;;;;5.15;1.10;;;17.70;90.80;;;;;;2090136;28;20041;-94
2022/06/11 05:22:23;;;;;;;5.60;1.13;;;17.80;90.70;;;;;;2104571;28;20114;-93
2022/06/11 05:23:42;;;;;;;4.85;1.30;;;17.80;90.70;;;;;;2108180;28;20500;-93
2022/06/11 05:25:01;;;;;;;3.42;1.15;;;17.80;90.60;;;;;;2105568;28;20027;-93
2022/06/11 05:26:29;;;;;;;4.93;1.30;;;17.90;90.60;;;;;;2099151;28;20033;-93
2022/06/11 05:27:49;;;;;;;2.67;0.82;;;18.00;90.50;;;;;;2104577;28;20040;-93
2022/06/11 05:29:11;;;;;;;3.03;1.00;;;18.00;90.40;;;;;;2111494;28;20035;-93
2022/06/11 05:30:31;;;;;;;4.82;1.00;;;18.20;90.30;;;;;;2111693;28;20525;-93
2022/06/11 05:31:51;;;;;;;3.05;1.02;;;18.20;90.20;;;;;;2095287;28;20486;-94
2022/06/11 05:33:11;;;;;;;3.60;1.23;;;18.30;90.20;;;;;;2084088;28;20041;-93
2022/06/11 05:34:31;;;;;;;4.40;1.25;;;18.40;90.10;;;;;;2106141;28;20070;-94
2022/06/11 05:35:52;;;;;;;5.75;1.20;;;18.50;90.00;;;;;;2096558;28;20036;-94
2022/06/11 05:37:12;;;;;;;3.70;1.13;;;18.50;89.70;;;;;;2105024;28;20039;-92
2022/06/11 05:38:32;;;;;;;5.47;1.20;;;18.60;89.60;;;;;;2106625;28;20200;-94
2022/06/11 05:39:51;;;;;;;4.85;1.20;;;18.50;89.50;;;;;;2098001;28;20037;-93
2022/06/11 05:41:11;;;;;;;5.57;1.38;;;18.60;89.50;;;;;;2100424;28;20048;-92
2022/06/11 05:42:30;;;;;;;4.43;1.10;;;18.60;89.40;;;;;;2098216;28;20123;-93
2022/06/11 05:43:49;;;;;;;3.28;1.10;;;18.60;89.20;;;;;;2095164;28;20048;-93
2022/06/11 05:45:09;;;;;;;5.63;1.17;;;18.70;89.10;;;;;;2091978;28;20029;-94
2022/06/11 05:46:28;;;;;;;4.72;1.20;;;18.80;88.90;;;;;;2089915;28;20041;-94
2022/06/11 05:47:50;;;;;;;5.97;1.35;;;18.80;88.60;;;;;;2102946;28;20040;-92
2022/06/11 05:49:18;;;;;;;3.25;1.15;;;18.90;88.40;;;;;;2112704;28;20130;-94
2022/06/11 05:50:41;;;;;;;5.82;1.35;;;18.90;88.30;;;;;;2113575;28;20060;-93
2022/06/11 05:52:05;;;;;;;5.60;1.30;;;19.00;88.20;;;;;;2112687;28;20482;-94
2022/06/11 05:53:27;;;;;;;5.10;1.05;;;19.00;88.00;;;;;;2112332;28;20475;-95
2022/06/11 05:54:48;;;;;;;4.28;1.13;;;19.10;87.80;;;;;;2112152;28;20039;-93
2022/06/11 05:56:07;;;;;;;;;;;19.10;87.60;;;;;;2104481;28;20036;-95
2022/06/11 05:57:28;;;;;;;5.13;1.20;;;19.20;87.40;;;;;;2100645;28;19908;-94
2022/06/11 05:58:57;;;;;;;5.68;1.33;;;19.20;87.50;;;;;;2103713;28;20024;-93
2022/06/11 06:00:19;;;;;;;5.25;1.17;;;19.20;87.40;;;;;;2098612;28;20508;-94
2022/06/11 06:01:40;;;;;;;5.10;1.20;;;19.20;87.40;;;;;;2098491;28;20152;-92
2022/06/11 06:03:00;;;;;;;5.32;1.25;;;19.30;87.80;;;;;;2095370;28;20044;-93
2022/06/11 06:04:19;;;;;;;4.28;1.20;;;19.30;87.10;;;;;;2086813;28;20045;-90
2022/06/11 06:05:39;;;;;;;6.50;1.40;;;19.30;87.00;;;;;;2096517;28;20111;-90
2022/06/11 06:06:58;;;;;;;6.88;1.60;;;19.40;87.60;;;;;;2094767;28;20040;-92
2022/06/11 06:08:18;;;;;;;6.28;1.40;;;19.40;86.80;;;;;;2093929;28;20036;-92
2022/06/11 06:09:38;;;;;;;5.90;1.20;;;19.40;86.50;;;;;;2094848;28;20530;-93
2022/06/11 06:10:57;;;;;;;5.45;1.20;;;19.40;86.40;;;;;;2093584;28;20072;-92
2022/06/11 06:12:17;;;;;;;6.45;1.30;;;19.40;86.30;;;;;;2098846;28;20040;-92
2022/06/11 06:13:48;;;;;;;5.82;1.40;;;19.40;86.20;;;;;;2100656;28;20040;-93
2022/06/11 06:15:12;;;;;;;7.22;1.55;;;19.50;86.00;;;;;;2096575;28;20037;-93
2022/06/11 06:16:31;;;;;;;5.97;1.40;;;19.50;86.00;;;;;;2097310;28;20472;-92
2022/06/11 06:17:52;;;;;;;4.40;1.30;;;19.50;86.00;;;;;;2095105;28;20049;-93
2022/06/11 06:19:11;;;;;;;5.43;1.60;;;19.50;85.80;;;;;;2098305;28;20037;-93
2022/06/11 06:20:30;;;;;;;5.28;1.40;;;19.50;85.80;;;;;;2081890;28;20050;-91
2022/06/11 06:21:49;;;;;;;4.30;1.20;;;19.50;85.70;;;;;;2091902;28;20040;-92
2022/06/11 06:23:09;;;;;;;6.88;1.30;;;19.50;85.60;;;;;;2100500;28;20067;-92
2022/06/11 06:24:28;;;;;;;5.28;1.15;;;19.50;85.50;;;;;;2097830;28;20398;-93
2022/06/11 06:25:49;;;;;;;6.35;1.48;;;19.50;85.50;;;;;;2112887;28;20024;-92
2022/06/11 06:27:08;;;;;;;6.78;1.40;;;19.50;85.40;;;;;;2098184;28;20111;-92
2022/06/11 06:28:27;;;;;;;5.40;1.33;;;19.60;85.40;;;;;;2094928;28;20434;-92
2022/06/11 06:29:47;;;;;;;7.15;1.50;;;19.60;85.20;;;;;;2104788;28;20040;-92
2022/06/11 06:31:07;;;;;;;7.32;1.50;;;19.60;85.10;;;;;;2094846;28;20092;-92
2022/06/11 06:32:26;;;;;;;;;;;19.70;84.90;;;;;;2092477;28;20040;-93
2022/06/11 06:33:46;;;;;;;6.68;1.35;;;19.70;84.90;;;;;;2091873;28;19912;-92
2022/06/11 06:35:06;;;;;;;5.70;1.35;;;19.70;84.90;;;;;;2094687;28;20037;-92
2022/06/11 06:36:26;;;;;;;6.35;1.45;;;19.80;84.70;;;;;;2092046;28;20041;-90
2022/06/11 06:37:45;;;;;;;6.03;1.30;;;19.80;84.60;;;;;;2103058;28;20048;-90
2022/06/11 06:39:04;;;;;;;5.30;1.25;;;19.80;84.40;;;;;;2098667;28;20079;-91
2022/06/11 06:40:24;;;;;;;6.80;1.30;;;19.80;84.40;;;;;;2085877;28;20049;-92
2022/06/11 06:41:43;;;;;;;5.57;1.30;;;19.90;84.40;;;;;;2108679;28;20044;-91
2022/06/11 06:43:03;;;;;;;4.63;1.20;;;20.00;84.30;;;;;;2089344;28;20108;-92
2022/06/11 06:44:22;;;;;;;6.28;1.27;;;20.00;84.10;;;;;;2104920;28;20035;-91
2022/06/11 06:45:41;;;;;;;6.93;1.42;;;20.10;83.90;;;;;;2098288;28;20057;-91
2022/06/11 06:47:01;;;;;;;6.90;1.33;;;20.10;83.80;;;;;;2103147;28;20442;-91
2022/06/11 06:48:20;;;;;;;5.30;1.33;;;20.10;83.70;;;;;;2100822;28;20066;-93
2022/06/11 06:49:39;;;;;;;8.25;1.40;;;20.20;83.70;;;;;;2109052;28;20517;-91
2022/06/11 06:50:59;;;;;;;4.00;1.17;;;20.20;83.50;;;;;;2089119;28;20415;-91
2022/06/11 06:52:19;;;;;;;5.13;1.33;;;20.30;83.30;;;;;;2083726;28;20044;-92
2022/06/11 06:53:41;;;;;;;5.82;1.20;;;20.30;83.10;;;;;;2095283;28;20067;-91
2022/06/11 06:55:00;;;;;;;6.43;1.33;;;20.40;83.00;;;;;;2111333;28;20039;-92
2022/06/11 06:56:20;;;;;;;6.93;1.45;;;20.40;82.60;;;;;;2096318;28;20197;-92
2022/06/11 06:57:40;;;;;;;5.18;1.48;;;20.40;82.60;;;;;;2084082;28;20124;-90
2022/06/11 06:59:04;;;;;;;7.30;1.48;;;20.50;82.60;;;;;;2081443;28;20037;-91
2022/06/11 07:00:24;;;;;;;8.73;1.70;;;20.50;82.50;;;;;;2096374;28;20466;-92
2022/06/11 07:01:44;;;;;;;5.78;1.50;;;20.50;82.30;;;;;;2089231;28;20116;-92
2022/06/11 07:03:04;;;;;;;7.03;1.45;;;20.50;82.20;;;;;;2087523;28;20072;-91
2022/06/11 07:04:23;;;;;;;5.50;1.33;;;20.60;82.20;;;;;;2088923;28;20041;-91
2022/06/11 07:05:43;;;;;;;4.15;1.10;;;20.60;82.10;;;;;;2089283;28;20033;-92
2022/06/11 07:07:03;;;;;;;6.70;1.40;;;20.70;81.90;;;;;;2094089;28;20040;-92
2022/06/11 07:08:22;;;;;;;5.78;1.20;;;20.70;81.90;;;;;;2100709;28;20048;-91
2022/06/11 07:09:41;;;;;;;5.70;1.33;;;20.70;81.70;;;;;;2103843;28;20446;-92
2022/06/11 07:11:01;;;;;;;7.45;1.35;;;20.70;81.60;;;;;;2099786;28;20032;-92
2022/06/11 07:12:21;;;;;;;7.30;1.58;;;20.70;81.30;;;;;;2095925;28;20103;-91
2022/06/11 07:13:40;;;;;;;7.93;1.30;;;20.70;81.20;;;;;;2093300;28;20037;-90
2022/06/11 07:14:59;;;;;;;6.20;1.38;;;20.70;81.20;;;;;;2104309;28;20036;-92
2022/06/11 07:16:26;;;;;;;6.80;1.65;;;20.70;81.00;;;;;;2101453;28;20052;-92
2022/06/11 07:17:55;;;;;;;6.57;1.50;;;20.70;81.00;;;;;;2114162;28;20044;-90